createdAt,value
2023-05-09T05:01:11.653Z,25.00
2023-05-09T05:02:11.501Z,25.00
2023-05-09T05:03:11.520Z,25.00
2023-05-09T05:04:11.570Z,25.00
2023-05-09T05:05:12.585Z,25.00
2023-05-09T05:06:11.657Z,25.00
2023-05-09T05:07:11.645Z,0.00
2023-05-09T05:08:11.670Z,0.00
2023-05-09T05:09:11.685Z,0.00
2023-05-09T05:10:11.709Z,0.00
2023-05-09T05:11:11.759Z,0.00
2023-05-09T05:12:11.833Z,0.00
2023-05-09T05:13:11.883Z,0.00
2023-05-09T05:14:11.900Z,0.00
2023-05-09T05:15:12.043Z,0.00
2023-05-09T05:16:12.065Z,0.00
2023-05-09T05:17:12.136Z,0.00
2023-05-09T05:18:12.088Z,0.00
2023-05-09T05:19:12.101Z,0.00
2023-05-09T05:20:12.153Z,0.00
2023-05-09T05:21:12.188Z,0.00
2023-05-09T05:22:12.293Z,0.00
2023-05-09T05:23:12.261Z,0.00
2023-05-09T05:24:12.280Z,0.00
2023-05-09T05:25:12.438Z,3.93
2023-05-09T05:26:12.306Z,25.00
2023-05-09T05:27:12.400Z,25.31
2023-05-09T05:28:12.436Z,30.34
2023-05-09T05:29:12.406Z,25.00
2023-05-09T05:30:12.463Z,26.70
2023-05-09T05:31:12.543Z,22.16
2023-05-09T05:32:12.499Z,27.60
2023-05-09T05:33:12.614Z,27.31
2023-05-09T05:34:12.584Z,27.45
2023-05-09T05:35:12.795Z,29.09
2023-05-09T05:36:12.615Z,33.05
2023-05-09T05:37:12.645Z,28.01
2023-05-09T05:38:12.629Z,26.02
2023-05-09T05:39:12.650Z,23.56
2023-05-09T05:40:12.893Z,36.12
2023-05-09T05:41:12.685Z,29.54
2023-05-09T05:42:12.726Z,25.00
2023-05-09T05:43:12.890Z,35.17
2023-05-09T05:44:12.772Z,28.96
2023-05-09T05:45:12.906Z,33.36
2023-05-09T05:46:12.899Z,31.90
2023-05-09T05:47:12.842Z,38.89
2023-05-09T05:48:12.845Z,31.90
2023-05-09T05:49:12.953Z,26.68
2023-05-09T07:40:12.657Z,25.00
2023-05-09T07:41:12.344Z,25.00
2023-05-09T07:42:12.331Z,25.00
2023-05-09T07:43:12.307Z,25.00
2023-05-09T07:44:12.319Z,25.00
2023-05-09T07:45:12.514Z,0.00
2023-05-09T07:46:12.347Z,0.00
2023-05-09T07:47:12.268Z,0.00
2023-05-09T07:48:12.347Z,0.00
2023-05-09T07:49:12.288Z,0.00
2023-05-09T07:50:12.268Z,0.00
2023-05-09T07:51:12.262Z,12.25
2023-05-09T07:52:12.246Z,25.18
2023-05-09T07:53:12.265Z,25.46
2023-05-09T07:54:12.216Z,26.06
2023-05-09T07:55:12.316Z,26.47
2023-05-09T07:56:12.328Z,25.00
2023-05-09T07:57:12.222Z,28.05
2023-05-09T07:58:12.225Z,41.71
2023-05-09T07:59:12.257Z,36.24
2023-05-09T08:00:12.184Z,26.94
2023-05-09T08:01:12.169Z,24.30
2023-05-09T08:02:12.211Z,28.98
2023-05-09T08:03:12.267Z,26.24
2023-05-09T08:04:12.241Z,25.52
2023-05-09T08:05:12.205Z,32.29
2023-05-09T08:06:12.200Z,28.90
2023-05-09T08:07:12.159Z,25.00
2023-05-09T08:08:12.150Z,36.40
2023-05-09T08:09:12.127Z,26.28
2023-05-09T08:10:12.125Z,25.00
2023-05-09T08:11:12.128Z,35.95
2023-05-09T08:12:12.262Z,29.48
2023-05-09T08:13:12.187Z,38.21
2023-05-09T08:14:12.802Z,38.96
2023-05-09T08:15:12.206Z,38.69
2023-05-09T08:16:12.152Z,40.59
2023-05-09T08:17:12.098Z,31.30
2023-05-09T08:18:12.044Z,30.64
2023-05-09T08:19:12.065Z,25.31
2023-05-09T08:20:12.043Z,35.96
2023-05-09T08:21:12.096Z,35.67
2023-05-09T08:22:12.043Z,28.22
2023-05-09T08:23:12.067Z,27.08
2023-05-09T08:24:12.036Z,31.35
2023-05-09T08:25:12.053Z,38.49
2023-05-09T08:26:11.996Z,30.50
2023-05-09T08:27:12.018Z,34.40
2023-05-09T08:28:12.153Z,30.11
2023-05-09T08:29:11.985Z,66.94
2023-05-09T08:30:11.966Z,51.01
2023-05-09T08:31:12.021Z,52.37
2023-05-09T08:32:12.026Z,66.52
2023-05-09T08:33:12.090Z,66.19
2023-05-09T08:34:11.980Z,65.34
2023-05-09T08:35:11.975Z,64.58
2023-05-09T08:36:11.933Z,70.34
2023-05-09T08:37:14.451Z,64.95
2023-05-09T08:38:11.963Z,73.34
2023-05-09T08:39:11.912Z,77.93
2023-05-09T08:40:11.960Z,81.80
2023-05-09T08:41:11.903Z,83.20
2023-05-09T08:42:11.934Z,85.04
2023-05-09T08:43:11.934Z,88.15
2023-05-09T08:44:12.034Z,87.16
2023-05-09T08:45:11.889Z,87.48
2023-05-09T08:46:11.928Z,88.53
2023-05-09T08:47:11.882Z,86.87
2023-05-09T08:48:11.882Z,97.64
2023-05-09T08:49:11.871Z,97.14
2023-05-09T08:50:12.055Z,100.76
2023-05-09T08:51:11.840Z,100.24
2023-05-09T08:52:11.855Z,101.64
2023-05-09T08:53:11.828Z,101.17
2023-05-09T08:54:11.808Z,110.07
2023-05-09T08:55:11.856Z,113.53
2023-05-09T08:56:11.825Z,113.00
2023-05-09T08:57:11.793Z,118.17
2023-05-09T08:58:11.811Z,118.23
2023-05-09T08:59:11.791Z,120.62
2023-05-09T09:00:11.887Z,128.79
2023-05-09T09:01:11.793Z,125.34
2023-05-09T09:02:11.839Z,128.19
2023-05-09T09:03:11.881Z,128.18
2023-05-09T09:04:11.747Z,123.78
2023-05-09T09:05:23.855Z,121.84
2023-05-09T09:06:12.727Z,122.20
2023-05-09T09:07:11.756Z,122.36
2023-05-09T09:08:11.737Z,122.63
2023-05-09T09:09:11.736Z,124.55
2023-05-09T09:10:11.709Z,121.61
2023-05-09T09:11:11.705Z,128.49
2023-05-09T09:12:11.708Z,115.10
2023-05-09T09:13:11.729Z,186.26
2023-05-09T09:14:11.659Z,191.46
2023-05-09T09:15:11.660Z,164.69
2023-05-09T09:16:11.766Z,143.20
2023-05-09T09:17:11.687Z,132.26
2023-05-09T09:18:11.734Z,124.51
2023-05-09T09:19:11.652Z,125.75
2023-05-09T09:20:11.667Z,119.27
2023-05-09T09:21:11.641Z,117.30
2023-05-09T09:22:11.622Z,123.62
2023-05-09T09:23:11.582Z,120.34
2023-05-09T09:24:11.607Z,103.49
2023-05-09T09:25:11.605Z,94.98
2023-05-09T09:26:11.583Z,91.76
2023-05-09T09:27:11.610Z,77.99
2023-05-09T09:28:11.576Z,78.93
2023-05-09T09:29:11.559Z,62.77
2023-05-09T09:30:11.565Z,70.72
2023-05-09T09:31:11.599Z,56.51
2023-05-09T09:32:11.774Z,31.15
2023-05-09T09:33:11.694Z,23.69
2023-05-09T09:34:11.699Z,33.75
2023-05-09T09:35:11.765Z,25.00
2023-05-09T09:36:11.821Z,35.59
2023-05-09T09:37:11.836Z,24.91
2023-05-09T09:38:11.894Z,30.57
2023-05-09T09:39:11.966Z,34.22
2023-05-09T09:40:12.282Z,43.48
2023-05-09T09:41:12.061Z,48.99
2023-05-09T09:42:12.104Z,26.91
2023-05-09T09:43:12.176Z,23.82
2023-05-09T09:44:12.216Z,25.00
2023-05-09T09:45:12.277Z,25.00
2023-05-09T09:46:12.374Z,35.22
2023-05-09T09:47:12.398Z,43.25
2023-05-09T09:48:12.597Z,38.43
2023-05-09T09:49:12.484Z,24.44
2023-05-09T09:50:12.705Z,35.63
2023-05-09T09:51:12.611Z,24.97
2023-05-09T09:52:12.669Z,26.89
2023-05-09T09:53:12.756Z,22.15
2023-05-09T09:54:12.680Z,27.02
2023-05-09T09:55:12.695Z,41.24
2023-05-09T09:56:12.700Z,52.29
2023-05-09T09:57:12.714Z,49.93
2023-05-09T09:58:12.746Z,55.61
2023-05-09T09:59:12.723Z,73.77
2023-05-09T10:00:12.890Z,58.27
2023-05-09T10:01:12.754Z,63.33
2023-05-09T10:02:12.746Z,68.51
2023-05-09T10:03:12.877Z,82.20
2023-05-09T10:04:12.841Z,88.10
2023-05-09T10:05:12.732Z,88.16
2023-05-09T10:06:12.750Z,54.49
2023-05-09T10:07:14.926Z,52.67
2023-05-09T10:08:12.807Z,48.73
2023-05-09T10:09:12.817Z,34.87
2023-05-09T10:10:13.252Z,42.90
2023-05-09T10:11:12.832Z,35.34
2023-05-09T10:12:12.797Z,33.60
2023-05-09T10:13:12.940Z,36.36
2023-05-09T10:14:12.885Z,49.18
2023-05-09T10:15:12.850Z,68.13
2023-05-09T10:16:13.122Z,93.78
2023-05-09T10:17:12.917Z,95.48
2023-05-09T10:18:12.983Z,119.82
2023-05-09T10:19:12.911Z,127.23
2023-05-09T10:20:13.414Z,125.62
2023-05-09T10:21:13.115Z,134.48
2023-05-09T10:22:13.117Z,108.59
2023-05-09T10:23:13.171Z,104.48
2023-05-09T10:24:13.253Z,111.61
2023-05-09T10:25:13.582Z,107.93
2023-05-09T10:26:13.375Z,65.48
2023-05-09T10:27:13.462Z,51.36
2023-05-09T10:28:13.480Z,53.92
2023-05-09T10:29:13.540Z,67.80
2023-05-09T10:30:13.549Z,57.98
2023-05-09T10:31:13.585Z,49.92
2023-05-09T10:32:13.584Z,54.92
2023-05-09T10:33:13.622Z,68.72
2023-05-09T10:34:13.647Z,56.45
2023-05-09T10:35:13.923Z,22.77
2023-05-09T10:36:13.828Z,31.84
2023-05-09T10:37:13.727Z,70.65
2023-05-09T10:38:13.741Z,69.65
2023-05-09T10:39:13.822Z,92.12
2023-05-09T10:40:13.762Z,83.89
2023-05-09T10:41:13.753Z,50.02
2023-05-09T10:42:13.757Z,51.88
2023-05-09T10:43:13.757Z,52.92
2023-05-09T10:44:13.772Z,80.11
2023-05-09T10:45:14.107Z,103.55
2023-05-09T10:46:13.813Z,87.68
2023-05-09T10:47:13.780Z,31.72
2023-05-09T10:48:13.822Z,28.13
2023-05-09T10:49:13.816Z,34.25
2023-05-09T10:50:13.834Z,75.65
2023-05-09T10:51:13.843Z,87.67
2023-05-09T10:52:13.923Z,101.09
2023-05-09T10:53:13.847Z,98.10
2023-05-09T10:54:13.860Z,122.53
2023-05-09T10:55:13.988Z,131.50
2023-05-09T10:56:13.903Z,117.65
2023-05-09T10:57:13.964Z,137.44
2023-05-09T10:58:13.994Z,152.05
2023-05-09T10:59:14.068Z,164.53
2023-05-09T11:00:14.135Z,172.97
2023-05-09T11:01:14.229Z,171.40
2023-05-09T11:02:14.231Z,168.07
2023-05-09T11:03:14.339Z,157.01
2023-05-09T11:04:14.514Z,124.63
2023-05-09T11:05:14.566Z,85.83
2023-05-09T11:06:14.478Z,99.16
2023-05-09T11:07:14.820Z,57.15
2023-05-09T11:08:14.678Z,55.36
2023-05-09T11:09:14.656Z,98.24
2023-05-09T11:10:14.686Z,107.17
2023-05-09T11:11:14.757Z,126.88
2023-05-09T11:12:14.829Z,135.54
2023-05-09T11:13:14.924Z,129.51
2023-05-09T11:14:14.921Z,136.03
2023-05-09T11:15:15.175Z,137.81
2023-05-09T11:16:15.078Z,147.31
2023-05-09T11:17:15.113Z,168.11
2023-05-09T11:18:15.306Z,182.17
2023-05-09T11:19:15.216Z,186.51
2023-05-09T11:20:15.332Z,196.70
2023-05-09T11:21:15.334Z,209.85
2023-05-09T11:22:15.377Z,214.29
2023-05-09T11:23:15.396Z,220.62
2023-05-09T11:24:15.521Z,228.24
2023-05-09T11:25:15.657Z,237.91
2023-05-09T11:26:15.510Z,240.14
2023-05-09T11:27:15.542Z,240.88
2023-05-09T11:28:15.546Z,251.96
2023-05-09T11:29:15.553Z,247.54
2023-05-09T11:30:15.652Z,250.00
2023-05-09T11:31:15.556Z,248.62
2023-05-09T11:32:15.841Z,248.72
2023-05-09T11:33:15.591Z,250.00
2023-05-09T11:34:15.582Z,249.01
2023-05-09T11:35:15.944Z,250.00
2023-05-09T11:36:15.638Z,247.39
2023-05-09T11:37:15.592Z,249.77
2023-05-09T11:38:15.605Z,248.17
2023-05-09T11:39:15.592Z,250.00
2023-05-09T11:40:15.749Z,250.00
2023-05-09T11:41:15.593Z,248.05
2023-05-09T11:42:15.590Z,249.09
2023-05-09T11:43:15.577Z,237.59
2023-05-09T11:44:15.603Z,213.02
2023-05-09T11:45:15.724Z,213.28
2023-05-09T11:46:15.630Z,226.96
2023-05-09T11:47:15.574Z,229.48
2023-05-09T11:48:15.581Z,228.14
2023-05-09T11:49:15.600Z,223.87
2023-05-09T11:50:15.638Z,227.49
2023-05-09T11:51:15.577Z,221.50
2023-05-09T11:52:15.599Z,223.77
2023-05-09T11:53:15.553Z,223.02
2023-05-09T11:54:15.638Z,231.44
2023-05-09T11:55:15.753Z,235.91
2023-05-09T11:56:15.656Z,236.39
2023-05-09T11:57:15.580Z,232.92
2023-05-09T11:58:15.597Z,230.50
2023-05-09T11:59:15.672Z,230.12
2023-05-09T12:00:15.787Z,233.58
2023-05-09T12:01:15.683Z,234.34
2023-05-09T12:02:15.720Z,238.52
2023-05-09T12:03:15.777Z,237.50
2023-05-09T12:04:15.729Z,239.61
2023-05-09T12:05:15.956Z,245.57
2023-05-09T12:06:15.688Z,248.56
2023-05-09T12:07:15.722Z,248.90
2023-05-09T12:08:15.744Z,249.50
2023-05-09T12:09:15.788Z,225.79
2023-05-09T12:10:15.858Z,210.01
2023-05-09T12:11:15.851Z,216.56
2023-05-09T12:12:15.940Z,210.80
2023-05-09T12:13:15.957Z,210.24
2023-05-09T12:14:15.899Z,202.91
2023-05-09T12:15:16.271Z,181.80
2023-05-09T12:16:15.972Z,192.38
2023-05-09T12:17:15.974Z,189.84
2023-05-09T12:18:15.956Z,153.94
2023-05-09T12:19:15.941Z,159.05
2023-05-09T12:20:16.008Z,149.40
2023-05-09T12:21:15.992Z,158.81
2023-05-09T12:22:15.939Z,150.18
2023-05-09T12:23:15.941Z,165.23
2023-05-09T12:24:15.912Z,156.43
2023-05-09T12:25:16.125Z,144.23
2023-05-09T12:26:15.951Z,159.47
2023-05-09T12:27:15.954Z,150.28
2023-05-09T12:28:16.036Z,140.35
2023-05-09T12:29:15.942Z,128.04
2023-05-09T12:30:16.009Z,120.78
2023-05-09T12:31:16.028Z,112.27
2023-05-09T12:32:15.987Z,118.41
2023-05-09T12:33:15.952Z,113.61
2023-05-09T12:34:15.969Z,116.06
2023-05-09T12:35:16.146Z,107.19
2023-05-09T12:36:15.949Z,113.53
2023-05-09T12:37:15.933Z,107.90
2023-05-09T12:38:15.969Z,104.94
2023-05-09T12:39:15.943Z,107.38
2023-05-09T12:40:15.997Z,109.27
2023-05-09T12:41:30.905Z,106.80
2023-05-09T12:42:16.973Z,107.19
2023-05-09T12:43:15.931Z,107.75
2023-05-09T12:44:16.041Z,107.78
2023-05-09T12:45:16.103Z,107.84
2023-05-09T12:46:15.960Z,109.11
2023-05-09T12:47:15.968Z,106.91
2023-05-09T12:48:15.909Z,107.06
2023-05-09T12:49:15.916Z,102.36
2023-05-09T12:50:15.928Z,100.60
2023-05-09T12:51:15.887Z,96.92
2023-05-09T12:52:15.900Z,103.22
2023-05-09T12:53:15.903Z,102.63
2023-05-09T12:54:15.876Z,96.44
2023-05-09T12:55:16.121Z,93.42
2023-05-09T12:56:15.874Z,95.40
2023-05-09T12:57:15.859Z,94.33
2023-05-09T12:58:15.846Z,91.20
2023-05-09T12:59:15.835Z,89.93
2023-05-09T13:00:15.877Z,94.62
2023-05-09T13:01:16.022Z,87.79
2023-05-09T13:02:16.072Z,92.98
2023-05-09T13:03:16.106Z,97.32
2023-05-09T13:04:16.118Z,90.88
2023-05-09T13:05:16.433Z,92.16
2023-05-09T13:06:16.261Z,90.28
2023-05-09T13:07:16.295Z,94.41
2023-05-09T13:08:16.346Z,96.31
2023-05-09T13:09:16.398Z,99.02
2023-05-09T13:10:16.435Z,88.63
2023-05-09T13:11:17.285Z,90.39
2023-05-09T13:12:16.557Z,89.49
2023-05-09T13:13:16.660Z,86.36
2023-05-09T13:14:16.667Z,76.39
2023-05-09T13:15:17.220Z,74.03
2023-05-09T13:16:17.979Z,72.18
2023-05-09T13:17:16.896Z,78.24
2023-05-09T13:18:16.925Z,76.62
2023-05-09T13:19:16.981Z,73.71
2023-05-09T13:20:17.306Z,81.97
2023-05-09T13:21:17.110Z,67.86
2023-05-09T13:22:17.156Z,69.93
2023-05-09T13:23:17.231Z,70.22
2023-05-09T13:24:17.311Z,74.84
2023-05-09T13:25:17.363Z,74.10
2023-05-09T13:26:17.442Z,55.70
2023-05-09T13:27:17.495Z,66.41
2023-05-09T13:28:17.554Z,62.85
2023-05-09T13:29:17.628Z,69.00
2023-05-09T13:30:18.160Z,64.41
2023-05-09T13:31:17.872Z,64.86
2023-05-09T13:32:17.893Z,61.11
2023-05-09T13:33:25.886Z,62.63
2023-05-09T13:34:18.858Z,62.66
2023-05-09T13:35:17.907Z,61.90
2023-05-09T13:36:17.858Z,62.56
2023-05-09T13:37:17.843Z,69.75
2023-05-09T13:38:17.843Z,66.66
2023-05-09T13:39:17.825Z,66.18
2023-05-09T13:40:17.932Z,67.60
2023-05-09T13:41:17.834Z,66.60
2023-05-09T13:42:19.172Z,73.26
2023-05-09T13:43:17.911Z,64.43
2023-05-09T13:44:17.924Z,60.01
2023-05-09T13:45:17.969Z,63.57
2023-05-09T13:46:18.114Z,63.26
2023-05-09T13:47:18.086Z,61.27
2023-05-09T13:48:18.263Z,60.30
2023-05-09T13:49:18.211Z,63.56
2023-05-09T13:50:18.559Z,60.42
2023-05-09T13:51:18.297Z,70.56
2023-05-09T13:52:18.377Z,63.39
2023-05-09T13:53:18.408Z,35.71
2023-05-09T13:54:18.471Z,58.32
2023-05-09T13:55:18.557Z,99.05
2023-05-09T13:56:18.573Z,100.93
2023-05-09T13:57:18.628Z,100.65
2023-05-09T13:58:18.683Z,86.14
2023-05-09T13:59:18.766Z,86.20
2023-05-09T14:00:18.986Z,80.97
2023-05-09T14:01:18.952Z,95.72
2023-05-09T14:02:18.930Z,90.53
2023-05-09T14:03:19.015Z,111.72
2023-05-09T14:04:19.000Z,110.90
2023-05-09T14:05:19.029Z,119.05
2023-05-09T14:06:19.128Z,114.06
2023-05-09T14:07:19.158Z,121.13
2023-05-09T14:08:19.225Z,131.95
2023-05-09T14:09:19.273Z,135.88
2023-05-09T14:10:19.492Z,134.85
2023-05-09T14:11:19.392Z,136.46
2023-05-09T14:12:19.407Z,139.10
2023-05-09T14:13:19.549Z,152.69
2023-05-09T14:14:19.519Z,162.11
2023-05-09T14:15:19.572Z,168.59
2023-05-09T14:16:19.668Z,170.16
2023-05-09T14:17:19.724Z,176.96
2023-05-09T14:18:21.138Z,177.61
2023-05-09T14:19:19.774Z,179.66
2023-05-09T14:20:19.954Z,183.26
2023-05-09T14:21:19.865Z,184.05
2023-05-09T14:22:20.023Z,188.90
2023-05-09T14:23:19.975Z,193.82
2023-05-09T14:24:19.984Z,191.86
2023-05-09T14:25:20.050Z,192.46
2023-05-09T14:26:20.094Z,198.83
2023-05-09T14:27:20.117Z,199.29
2023-05-09T14:28:20.170Z,203.16
2023-05-09T14:29:20.190Z,202.97
2023-05-09T14:30:20.266Z,204.59
2023-05-09T14:31:20.294Z,206.64
2023-05-09T14:32:20.275Z,210.55
2023-05-09T14:33:20.304Z,213.02
2023-05-09T14:34:20.350Z,213.93
2023-05-09T14:35:20.413Z,221.32
2023-05-09T14:36:20.495Z,225.95
2023-05-09T14:37:20.427Z,229.12
2023-05-09T14:38:20.434Z,231.02
2023-05-09T14:39:20.429Z,228.93
2023-05-09T14:40:20.519Z,237.81
2023-05-09T14:41:21.551Z,246.57
2023-05-09T14:42:20.502Z,250.37
2023-05-09T14:43:20.516Z,249.97
2023-05-09T14:44:20.520Z,250.00
2023-05-09T14:45:20.604Z,250.00
2023-05-09T14:46:20.598Z,248.86
2023-05-09T14:47:20.584Z,246.16
2023-05-09T14:48:20.565Z,250.00
2023-05-09T14:49:20.591Z,248.08
2023-05-09T14:50:20.559Z,248.97
2023-05-09T14:51:20.589Z,248.02
2023-05-09T14:52:20.684Z,246.92
2023-05-09T14:53:20.574Z,246.12
2023-05-09T14:54:20.612Z,245.74
2023-05-09T14:55:20.605Z,247.12
2023-05-09T14:56:20.592Z,247.59
2023-05-09T14:57:20.613Z,248.51
2023-05-09T14:58:20.632Z,247.37
2023-05-09T14:59:20.637Z,247.97
2023-05-09T15:00:22.302Z,249.20
2023-05-09T15:01:20.613Z,248.45
2023-05-09T15:02:20.629Z,247.71
2023-05-09T15:03:20.627Z,247.49
2023-05-09T15:04:20.652Z,249.23
2023-05-09T15:05:20.679Z,247.87
2023-05-09T15:06:20.625Z,248.81
2023-05-09T15:07:20.647Z,247.64
2023-05-09T15:08:20.732Z,245.92
2023-05-09T15:09:20.684Z,248.26
2023-05-09T15:10:20.656Z,245.83
2023-05-09T15:11:20.640Z,245.47
2023-05-09T15:12:20.690Z,248.79
2023-05-09T15:13:20.773Z,249.58
2023-05-09T15:14:20.676Z,247.82
2023-05-09T15:15:20.658Z,244.64
2023-05-09T15:16:20.677Z,245.94
2023-05-09T15:17:20.639Z,246.39
2023-05-09T15:18:20.645Z,244.63
2023-05-09T15:19:20.654Z,243.32
2023-05-09T15:20:20.645Z,245.76
2023-05-09T15:21:20.654Z,242.50
2023-05-09T15:22:20.619Z,244.28
2023-05-09T15:23:20.685Z,243.51
2023-05-09T15:24:20.706Z,243.08
2023-05-09T15:25:20.632Z,243.67
2023-05-09T15:26:20.621Z,243.17
2023-05-09T15:27:20.616Z,244.29
2023-05-09T15:28:20.605Z,244.56
2023-05-09T15:29:20.625Z,242.69
2023-05-09T15:30:20.585Z,243.31
2023-05-09T15:31:20.669Z,243.94
2023-05-09T15:32:20.612Z,242.29
2023-05-09T15:33:20.617Z,240.64
2023-05-09T15:34:20.577Z,241.72
2023-05-09T15:35:20.607Z,242.52
2023-05-09T15:36:20.571Z,240.47
2023-05-09T15:37:20.583Z,238.99
2023-05-09T15:38:20.594Z,241.09
2023-05-09T15:39:20.610Z,239.90
2023-05-09T15:40:20.661Z,240.12
2023-05-09T15:41:20.565Z,239.73
2023-05-09T15:42:20.579Z,239.35
2023-05-09T15:43:20.556Z,239.13
2023-05-09T15:44:20.557Z,239.72
2023-05-09T15:45:20.569Z,238.32
2023-05-09T15:46:20.642Z,237.70
2023-05-09T15:47:20.634Z,240.16
2023-05-09T15:48:20.586Z,236.26
2023-05-09T15:49:20.586Z,238.05
2023-05-09T15:50:20.606Z,239.61
2023-05-09T15:51:20.597Z,236.92
2023-05-09T15:52:20.582Z,237.25
2023-05-09T15:53:20.626Z,236.75
2023-05-09T15:54:20.612Z,236.12
2023-05-09T15:55:20.694Z,238.88
2023-05-09T15:56:20.720Z,237.07
2023-05-09T15:57:20.614Z,234.60
2023-05-09T15:58:20.633Z,235.82
2023-05-09T15:59:20.629Z,237.06
2023-05-09T16:00:20.632Z,235.73
2023-05-09T16:01:20.689Z,235.98
2023-05-09T16:02:20.668Z,235.56
2023-05-09T16:03:20.775Z,236.17
2023-05-09T16:04:20.665Z,236.07
2023-05-09T16:05:20.684Z,232.32
2023-05-09T16:06:20.656Z,232.96
2023-05-09T16:07:20.892Z,233.85
2023-05-09T16:08:20.665Z,234.25
2023-05-09T16:09:20.685Z,230.80
2023-05-09T16:10:20.640Z,235.44
2023-05-09T16:11:20.663Z,234.55
2023-05-09T16:12:20.753Z,231.78
2023-05-09T16:13:20.689Z,231.89
2023-05-09T16:14:20.713Z,234.72
2023-05-09T16:15:20.669Z,232.52
2023-05-09T16:16:20.720Z,228.85
2023-05-09T16:17:20.680Z,233.21
2023-05-09T16:18:20.704Z,230.00
2023-05-09T16:19:20.701Z,231.68
2023-05-09T16:20:20.686Z,228.64
2023-05-09T16:21:20.732Z,230.15
2023-05-09T16:22:20.694Z,228.80
2023-05-09T16:23:20.738Z,232.27
2023-05-09T16:24:20.710Z,230.94
2023-05-09T16:25:20.698Z,228.64
2023-05-09T16:26:20.749Z,227.18
2023-05-09T16:27:20.727Z,230.02
2023-05-09T16:28:20.808Z,227.96
2023-05-09T16:29:20.759Z,229.04
2023-05-09T16:30:20.745Z,228.20
2023-05-09T16:31:20.822Z,228.97
2023-05-09T16:32:20.768Z,229.04
2023-05-09T16:33:20.791Z,228.15
2023-05-09T16:34:20.768Z,226.23
2023-05-09T16:35:20.802Z,229.03
2023-05-09T16:36:20.832Z,226.87
2023-05-09T16:37:20.847Z,227.39
2023-05-09T16:38:20.829Z,226.51
2023-05-09T16:39:20.832Z,229.44
2023-05-09T16:40:20.826Z,226.70
2023-05-09T16:41:20.844Z,227.27
2023-05-09T16:42:20.873Z,227.26
2023-05-09T16:43:20.863Z,225.01
2023-05-09T16:44:20.980Z,226.51
2023-05-09T16:45:20.958Z,226.46
2023-05-09T16:46:20.950Z,223.40
2023-05-09T16:47:20.929Z,223.82
2023-05-09T16:48:20.914Z,223.81
2023-05-09T16:49:20.933Z,225.41
2023-05-09T16:50:20.927Z,226.42
2023-05-09T16:51:20.995Z,224.80
2023-05-09T16:52:21.006Z,223.17
2023-05-09T16:53:20.989Z,222.73
2023-05-09T16:54:21.013Z,225.96
2023-05-09T16:55:21.027Z,224.88
2023-05-09T16:56:21.026Z,224.18
2023-05-09T16:57:21.030Z,224.99
2023-05-09T16:58:21.119Z,223.69
2023-05-09T16:59:21.087Z,223.39
2023-05-09T17:00:21.091Z,223.44
